sensor_id;sensor_type;location;lat;lon;timestamp;pressure;altitude;pressure_sealevel;temperature;humidity
32759;BME280;19125;52.360;9.974;2023-12-07T00:00:09;-15010.44;;;-145.17;79.27
32759;BME280;19125;52.360;9.974;2023-12-07T00:02:34;-15010.44;;;-145.17;78.85
32759;BME280;19125;52.360;9.974;2023-12-07T00:05:00;-15010.44;;;-145.17;79.01
32759;BME280;19125;52.360;9.974;2023-12-07T00:07:25;-15010.44;;;-145.17;79.30
32759;BME280;19125;52.360;9.974;2023-12-07T00:09:50;-15010.44;;;-145.17;79.07
32759;BME280;19125;52.360;9.974;2023-12-07T00:12:16;-15010.44;;;-145.17;78.96
32759;BME280;19125;52.360;9.974;2023-12-07T00:14:42;-15010.44;;;-145.17;79.38
32759;BME280;19125;52.360;9.974;2023-12-07T00:17:07;-15010.44;;;-145.17;79.07
32759;BME280;19125;52.360;9.974;2023-12-07T00:19:32;-15010.44;;;-145.17;79.04
32759;BME280;19125;52.360;9.974;2023-12-07T00:21:58;-15010.44;;;-145.17;79.39
32759;BME280;19125;52.360;9.974;2023-12-07T00:24:23;-15010.44;;;-145.17;79.37
32759;BME280;19125;52.360;9.974;2023-12-07T00:26:49;-15010.44;;;-145.17;79.40
32759;BME280;19125;52.360;9.974;2023-12-07T00:29:15;-15010.44;;;-145.17;79.14
32759;BME280;19125;52.360;9.974;2023-12-07T00:31:40;-15010.44;;;-145.17;79.18
32759;BME280;19125;52.360;9.974;2023-12-07T00:34:06;-15010.44;;;-145.17;79.31
32759;BME280;19125;52.360;9.974;2023-12-07T00:36:31;-15010.44;;;-145.17;79.52
32759;BME280;19125;52.360;9.974;2023-12-07T00:38:57;-15010.44;;;-145.17;79.30
32759;BME280;19125;52.360;9.974;2023-12-07T00:41:22;-15010.44;;;-145.17;79.13
32759;BME280;19125;52.360;9.974;2023-12-07T00:43:47;-15010.44;;;-145.17;79.05
32759;BME280;19125;52.360;9.974;2023-12-07T00:46:13;-15010.44;;;-145.17;79.61
32759;BME280;19125;52.360;9.974;2023-12-07T00:48:38;-15010.44;;;-145.17;79.40
32759;BME280;19125;52.360;9.974;2023-12-07T00:51:04;-15010.44;;;-145.17;79.34
32759;BME280;19125;52.360;9.974;2023-12-07T00:53:31;-15010.44;;;-145.17;79.67
32759;BME280;19125;52.360;9.974;2023-12-07T00:55:57;-15010.44;;;-145.17;79.03
32759;BME280;19125;52.360;9.974;2023-12-07T00:58:22;-15010.44;;;-145.17;79.28
32759;BME280;19125;52.360;9.974;2023-12-07T01:00:48;-15010.44;;;-145.17;79.10
32759;BME280;19125;52.360;9.974;2023-12-07T01:03:13;-15010.44;;;-145.17;78.94
32759;BME280;19125;52.360;9.974;2023-12-07T01:05:39;-15010.44;;;-145.17;79.43
32759;BME280;19125;52.360;9.974;2023-12-07T01:08:04;-15010.44;;;-145.17;79.21
32759;BME280;19125;52.360;9.974;2023-12-07T01:10:30;-15010.44;;;-145.17;79.36
32759;BME280;19125;52.360;9.974;2023-12-07T01:12:56;-15010.44;;;-145.17;79.05
32759;BME280;19125;52.360;9.974;2023-12-07T01:15:21;-15010.44;;;-145.17;79.23
32759;BME280;19125;52.360;9.974;2023-12-07T01:17:46;-15010.44;;;-145.17;79.41
32759;BME280;19125;52.360;9.974;2023-12-07T01:20:12;-15010.44;;;-145.17;78.88
32759;BME280;19125;52.360;9.974;2023-12-07T01:22:41;-15010.44;;;-145.17;78.97
32759;BME280;19125;52.360;9.974;2023-12-07T01:25:07;-15010.44;;;-145.17;78.97
32759;BME280;19125;52.360;9.974;2023-12-07T01:27:33;-15010.44;;;-145.17;79.24
32759;BME280;19125;52.360;9.974;2023-12-07T01:29:58;-15010.44;;;-145.17;78.95
32759;BME280;19125;52.360;9.974;2023-12-07T01:32:23;-15010.44;;;-145.17;79.41
32759;BME280;19125;52.360;9.974;2023-12-07T01:34:49;-15010.44;;;-145.17;79.51
32759;BME280;19125;52.360;9.974;2023-12-07T01:37:14;-15010.44;;;-145.17;78.83
32759;BME280;19125;52.360;9.974;2023-12-07T01:39:41;-15010.44;;;-145.17;79.32
32759;BME280;19125;52.360;9.974;2023-12-07T01:42:08;-15010.44;;;-145.17;79.08
32759;BME280;19125;52.360;9.974;2023-12-07T01:44:34;-15010.44;;;-145.17;79.18
32759;BME280;19125;52.360;9.974;2023-12-07T01:46:59;-15010.44;;;-145.17;78.92
32759;BME280;19125;52.360;9.974;2023-12-07T01:49:25;-15010.44;;;-145.17;79.24
32759;BME280;19125;52.360;9.974;2023-12-07T01:51:51;-15010.44;;;-145.17;78.93
32759;BME280;19125;52.360;9.974;2023-12-07T01:54:17;-15010.44;;;-145.17;78.72
32759;BME280;19125;52.360;9.974;2023-12-07T01:56:42;-15010.44;;;-145.17;78.87
32759;BME280;19125;52.360;9.974;2023-12-07T01:59:08;-15010.44;;;-145.17;78.99
32759;BME280;19125;52.360;9.974;2023-12-07T02:01:34;-15010.44;;;-145.17;78.76
32759;BME280;19125;52.360;9.974;2023-12-07T02:04:00;-15010.44;;;-145.17;78.98
32759;BME280;19125;52.360;9.974;2023-12-07T02:06:25;-15010.44;;;-145.17;79.13
32759;BME280;19125;52.360;9.974;2023-12-07T02:08:51;-15010.44;;;-145.17;79.15
32759;BME280;19125;52.360;9.974;2023-12-07T02:11:17;-15010.44;;;-145.17;78.49
32759;BME280;19125;52.360;9.974;2023-12-07T02:13:43;-15010.44;;;-145.17;78.45
32759;BME280;19125;52.360;9.974;2023-12-07T02:16:18;-15010.44;;;-145.17;79.09
32759;BME280;19125;52.360;9.974;2023-12-07T02:19:03;-15010.44;;;-145.17;78.88
32759;BME280;19125;52.360;9.974;2023-12-07T02:21:47;-15010.44;;;-145.17;78.93
32759;BME280;19125;52.360;9.974;2023-12-07T02:24:20;-15010.44;;;-145.17;78.74
32759;BME280;19125;52.360;9.974;2023-12-07T02:26:46;-15010.44;;;-145.17;78.85
32759;BME280;19125;52.360;9.974;2023-12-07T02:29:12;-15010.44;;;-145.17;78.90
32759;BME280;19125;52.360;9.974;2023-12-07T02:31:37;-15010.44;;;-145.17;78.74
32759;BME280;19125;52.360;9.974;2023-12-07T02:34:03;-15010.44;;;-145.17;78.56
32759;BME280;19125;52.360;9.974;2023-12-07T02:36:29;-15010.44;;;-145.17;78.64
32759;BME280;19125;52.360;9.974;2023-12-07T02:38:58;-15010.44;;;-145.17;78.82
32759;BME280;19125;52.360;9.974;2023-12-07T02:41:27;-15010.44;;;-145.17;78.45
32759;BME280;19125;52.360;9.974;2023-12-07T02:43:53;-15010.44;;;-145.17;78.78
32759;BME280;19125;52.360;9.974;2023-12-07T02:46:19;-15010.44;;;-145.17;78.68
32759;BME280;19125;52.360;9.974;2023-12-07T02:48:44;-15010.44;;;-145.17;78.50
32759;BME280;19125;52.360;9.974;2023-12-07T02:51:10;-15010.44;;;-145.17;78.37
32759;BME280;19125;52.360;9.974;2023-12-07T02:53:35;-15010.44;;;-145.17;78.68
32759;BME280;19125;52.360;9.974;2023-12-07T02:56:00;-15010.44;;;-145.17;78.17
32759;BME280;19125;52.360;9.974;2023-12-07T02:58:26;-15010.44;;;-145.17;78.41
32759;BME280;19125;52.360;9.974;2023-12-07T03:00:51;-15010.44;;;-145.17;78.61
32759;BME280;19125;52.360;9.974;2023-12-07T03:03:16;-15010.44;;;-145.17;78.31
32759;BME280;19125;52.360;9.974;2023-12-07T03:05:42;-15010.44;;;-145.17;78.76
32759;BME280;19125;52.360;9.974;2023-12-07T03:08:07;-15010.44;;;-145.17;78.33
32759;BME280;19125;52.360;9.974;2023-12-07T03:10:32;-15010.44;;;-145.17;77.89
32759;BME280;19125;52.360;9.974;2023-12-07T03:12:58;-15010.44;;;-145.17;78.47
32759;BME280;19125;52.360;9.974;2023-12-07T03:15:23;-15010.44;;;-145.17;78.21
32759;BME280;19125;52.360;9.974;2023-12-07T03:17:49;-15010.44;;;-145.17;78.18
32759;BME280;19125;52.360;9.974;2023-12-07T03:20:14;-15010.44;;;-145.17;78.25
32759;BME280;19125;52.360;9.974;2023-12-07T03:22:40;-15010.44;;;-145.17;78.16
32759;BME280;19125;52.360;9.974;2023-12-07T03:25:06;-15010.44;;;-145.17;78.00
32759;BME280;19125;52.360;9.974;2023-12-07T03:27:32;-15010.44;;;-145.17;78.09
32759;BME280;19125;52.360;9.974;2023-12-07T03:29:57;-15010.44;;;-145.17;77.96
32759;BME280;19125;52.360;9.974;2023-12-07T03:32:22;-15010.44;;;-145.17;78.16
32759;BME280;19125;52.360;9.974;2023-12-07T03:34:48;-15010.44;;;-145.17;77.83
32759;BME280;19125;52.360;9.974;2023-12-07T03:37:13;-15010.44;;;-145.17;78.21
32759;BME280;19125;52.360;9.974;2023-12-07T03:39:38;-15010.44;;;-145.17;78.27
32759;BME280;19125;52.360;9.974;2023-12-07T03:42:04;-15010.44;;;-145.17;78.09
32759;BME280;19125;52.360;9.974;2023-12-07T03:44:29;-15010.44;;;-145.17;77.67
32759;BME280;19125;52.360;9.974;2023-12-07T03:46:56;-15010.44;;;-145.17;77.82
32759;BME280;19125;52.360;9.974;2023-12-07T03:49:21;-15010.44;;;-145.17;77.98
32759;BME280;19125;52.360;9.974;2023-12-07T03:51:46;-15010.44;;;-145.17;78.02
32759;BME280;19125;52.360;9.974;2023-12-07T03:54:12;-15010.44;;;-145.17;78.30
32759;BME280;19125;52.360;9.974;2023-12-07T03:56:37;-15010.44;;;-145.17;77.76
32759;BME280;19125;52.360;9.974;2023-12-07T03:59:02;-15010.44;;;-145.17;78.11
32759;BME280;19125;52.360;9.974;2023-12-07T04:01:29;-15010.44;;;-145.17;77.63
32759;BME280;19125;52.360;9.974;2023-12-07T04:03:55;-15010.44;;;-145.17;77.43
32759;BME280;19125;52.360;9.974;2023-12-07T04:06:22;-15010.44;;;-145.17;77.61
32759;BME280;19125;52.360;9.974;2023-12-07T04:08:47;-15010.44;;;-145.17;77.62
32759;BME280;19125;52.360;9.974;2023-12-07T04:11:13;-15010.44;;;-145.17;77.62
32759;BME280;19125;52.360;9.974;2023-12-07T04:13:40;-15010.44;;;-145.17;77.63
32759;BME280;19125;52.360;9.974;2023-12-07T04:16:07;-15010.44;;;-145.17;77.83
32759;BME280;19125;52.360;9.974;2023-12-07T04:18:32;-15010.44;;;-145.17;77.74
32759;BME280;19125;52.360;9.974;2023-12-07T04:20:58;-15010.44;;;-145.17;77.65
32759;BME280;19125;52.360;9.974;2023-12-07T04:23:23;-15010.44;;;-145.17;77.19
32759;BME280;19125;52.360;9.974;2023-12-07T04:25:49;-15010.44;;;-145.17;77.34
32759;BME280;19125;52.360;9.974;2023-12-07T04:28:14;-15010.44;;;-145.17;77.29
32759;BME280;19125;52.360;9.974;2023-12-07T04:30:39;-15010.44;;;-145.17;77.46
32759;BME280;19125;52.360;9.974;2023-12-07T04:33:05;-15010.44;;;-145.17;77.62
32759;BME280;19125;52.360;9.974;2023-12-07T04:35:31;-15010.44;;;-145.17;77.28
32759;BME280;19125;52.360;9.974;2023-12-07T04:37:56;-15010.44;;;-145.17;77.39
32759;BME280;19125;52.360;9.974;2023-12-07T04:40:22;-15010.44;;;-145.17;77.32
32759;BME280;19125;52.360;9.974;2023-12-07T04:42:50;-15010.44;;;-145.17;77.29
32759;BME280;19125;52.360;9.974;2023-12-07T04:45:16;-15009.00;;;-145.17;76.90
32759;BME280;19125;52.360;9.974;2023-12-07T04:47:41;-15009.00;;;-145.17;76.71
32759;BME280;19125;52.360;9.974;2023-12-07T04:50:07;-15009.00;;;-145.17;76.96
32759;BME280;19125;52.360;9.974;2023-12-07T04:52:32;-15009.00;;;-145.17;76.86
32759;BME280;19125;52.360;9.974;2023-12-07T04:54:59;-15009.00;;;-145.17;76.65
32759;BME280;19125;52.360;9.974;2023-12-07T04:57:24;-14761.44;;;-145.17;76.77
32759;BME280;19125;52.360;9.974;2023-12-07T04:59:49;-14761.44;;;-145.17;76.71
32759;BME280;19125;52.360;9.974;2023-12-07T05:02:18;-14761.44;;;-145.17;76.98
32759;BME280;19125;52.360;9.974;2023-12-07T05:04:44;-14513.88;;;-145.17;76.43
32759;BME280;19125;52.360;9.974;2023-12-07T05:07:11;-14513.88;;;-145.17;76.40
32759;BME280;19125;52.360;9.974;2023-12-07T05:09:36;-14513.88;;;-145.17;76.80
32759;BME280;19125;52.360;9.974;2023-12-07T05:12:01;-14266.31;;;-145.17;76.72
32759;BME280;19125;52.360;9.974;2023-12-07T05:14:27;-14266.31;;;-145.17;76.59
32759;BME280;19125;52.360;9.974;2023-12-07T05:16:52;-14266.31;;;-145.17;76.86
32759;BME280;19125;52.360;9.974;2023-12-07T05:19:25;-14266.31;;;-145.17;76.38
32759;BME280;19125;52.360;9.974;2023-12-07T05:21:51;-14266.31;;;-145.17;76.72
32759;BME280;19125;52.360;9.974;2023-12-07T05:24:17;-14018.72;;;-145.17;76.53
32759;BME280;19125;52.360;9.974;2023-12-07T05:26:43;-14018.72;;;-145.17;76.61
32759;BME280;19125;52.360;9.974;2023-12-07T05:29:11;-14018.72;;;-145.17;76.41
32759;BME280;19125;52.360;9.974;2023-12-07T05:31:36;-14018.72;;;-145.17;76.43
32759;BME280;19125;52.360;9.974;2023-12-07T05:34:02;-14018.72;;;-145.17;76.63
32759;BME280;19125;52.360;9.974;2023-12-07T05:36:27;-14018.72;;;-145.17;76.36
32759;BME280;19125;52.360;9.974;2023-12-07T05:38:53;-14018.72;;;-145.17;76.92
32759;BME280;19125;52.360;9.974;2023-12-07T05:41:19;-14018.72;;;-145.17;76.28
32759;BME280;19125;52.360;9.974;2023-12-07T05:43:44;-14018.72;;;-145.17;76.82
32759;BME280;19125;52.360;9.974;2023-12-07T05:46:09;-13771.13;;;-145.17;76.39
32759;BME280;19125;52.360;9.974;2023-12-07T05:48:35;-13771.13;;;-145.17;76.72
32759;BME280;19125;52.360;9.974;2023-12-07T05:51:01;-13771.13;;;-145.17;76.57
32759;BME280;19125;52.360;9.974;2023-12-07T05:53:27;-13771.13;;;-145.17;76.32
32759;BME280;19125;52.360;9.974;2023-12-07T05:55:52;-13771.13;;;-145.17;76.80
32759;BME280;19125;52.360;9.974;2023-12-07T05:58:18;-13771.13;;;-145.17;76.12
32759;BME280;19125;52.360;9.974;2023-12-07T06:00:43;-13523.50;;;-145.17;76.53
32759;BME280;19125;52.360;9.974;2023-12-07T06:03:12;-13771.13;;;-145.17;76.86
32759;BME280;19125;52.360;9.974;2023-12-07T06:05:37;-13771.13;;;-145.17;76.82
32759;BME280;19125;52.360;9.974;2023-12-07T06:08:03;-13523.50;;;-145.17;76.72
32759;BME280;19125;52.360;9.974;2023-12-07T06:10:29;-13523.50;;;-145.17;76.91
32759;BME280;19125;52.360;9.974;2023-12-07T06:12:55;-13523.50;;;-145.17;76.10
32759;BME280;19125;52.360;9.974;2023-12-07T06:15:22;-13523.50;;;-145.17;76.71
32759;BME280;19125;52.360;9.974;2023-12-07T06:17:47;-13523.50;;;-145.17;76.45
32759;BME280;19125;52.360;9.974;2023-12-07T06:20:12;-13523.50;;;-145.17;76.38
32759;BME280;19125;52.360;9.974;2023-12-07T06:22:38;-13523.50;;;-145.17;76.75
32759;BME280;19125;52.360;9.974;2023-12-07T06:25:03;-13523.50;;;-145.17;76.24
32759;BME280;19125;52.360;9.974;2023-12-07T06:27:29;-13523.50;;;-145.17;76.30
32759;BME280;19125;52.360;9.974;2023-12-07T06:29:54;-13523.50;;;-145.17;76.24
32759;BME280;19125;52.360;9.974;2023-12-07T06:32:20;-13523.50;;;-145.17;76.54
32759;BME280;19125;52.360;9.974;2023-12-07T06:34:45;-13523.50;;;-145.17;76.53
32759;BME280;19125;52.360;9.974;2023-12-07T06:37:10;-13523.50;;;-145.17;76.33
32759;BME280;19125;52.360;9.974;2023-12-07T06:39:36;-13523.50;;;-145.17;76.55
32759;BME280;19125;52.360;9.974;2023-12-07T06:42:01;-13523.50;;;-145.17;76.31
32759;BME280;19125;52.360;9.974;2023-12-07T06:44:27;-13523.50;;;-145.17;76.74
32759;BME280;19125;52.360;9.974;2023-12-07T06:46:52;-13275.88;;;-145.17;76.40
32759;BME280;19125;52.360;9.974;2023-12-07T06:49:18;-13275.88;;;-145.17;76.12
32759;BME280;19125;52.360;9.974;2023-12-07T06:51:44;-13275.88;;;-145.17;76.40
32759;BME280;19125;52.360;9.974;2023-12-07T06:54:09;-13028.22;;;-145.17;76.16
32759;BME280;19125;52.360;9.974;2023-12-07T06:56:35;-13028.22;;;-145.17;76.58
32759;BME280;19125;52.360;9.974;2023-12-07T06:59:00;-13028.22;;;-145.17;76.53
32759;BME280;19125;52.360;9.974;2023-12-07T07:01:26;-13028.22;;;-145.17;76.57
32759;BME280;19125;52.360;9.974;2023-12-07T07:03:51;-13028.22;;;-145.17;75.97
32759;BME280;19125;52.360;9.974;2023-12-07T07:06:16;-12780.53;;;-145.17;76.28
32759;BME280;19125;52.360;9.974;2023-12-07T07:08:42;-12780.53;;;-145.17;76.38
32759;BME280;19125;52.360;9.974;2023-12-07T07:11:13;-12780.53;;;-145.17;76.10
32759;BME280;19125;52.360;9.974;2023-12-07T07:13:39;-12780.53;;;-145.17;76.05
32759;BME280;19125;52.360;9.974;2023-12-07T07:16:05;-12532.84;;;-145.17;75.70
32759;BME280;19125;52.360;9.974;2023-12-07T07:18:30;-12532.84;;;-145.17;76.24
32759;BME280;19125;52.360;9.974;2023-12-07T07:20:55;-12532.84;;;-145.17;75.83
32759;BME280;19125;52.360;9.974;2023-12-07T07:23:21;-12285.16;;;-145.17;75.88
32759;BME280;19125;52.360;9.974;2023-12-07T07:25:46;-12285.16;;;-145.17;76.01
32759;BME280;19125;52.360;9.974;2023-12-07T07:28:11;-12285.16;;;-145.17;75.88
32759;BME280;19125;52.360;9.974;2023-12-07T07:30:37;-12037.44;;;-145.17;75.76
32759;BME280;19125;52.360;9.974;2023-12-07T07:33:02;-12037.44;;;-145.17;76.37
32759;BME280;19125;52.360;9.974;2023-12-07T07:35:27;-12037.44;;;-145.17;75.75
32759;BME280;19125;52.360;9.974;2023-12-07T07:37:53;-11789.69;;;-145.17;75.45
32759;BME280;19125;52.360;9.974;2023-12-07T07:40:19;-11789.69;;;-145.17;75.75
32759;BME280;19125;52.360;9.974;2023-12-07T07:42:44;-11541.97;;;-145.17;75.85
32759;BME280;19125;52.360;9.974;2023-12-07T07:45:09;-11541.97;;;-145.17;76.07
32759;BME280;19125;52.360;9.974;2023-12-07T07:47:35;-11294.19;;;-145.17;75.47
32759;BME280;19125;52.360;9.974;2023-12-07T07:50:00;-11294.19;;;-145.17;75.93
32759;BME280;19125;52.360;9.974;2023-12-07T07:52:32;-11294.19;;;-145.17;75.80
32759;BME280;19125;52.360;9.974;2023-12-07T07:54:57;-11046.41;;;-145.17;75.54
32759;BME280;19125;52.360;9.974;2023-12-07T07:57:23;-11046.41;;;-145.17;75.71
32759;BME280;19125;52.360;9.974;2023-12-07T07:59:48;-11046.41;;;-145.17;75.13
32759;BME280;19125;52.360;9.974;2023-12-07T08:02:13;-11046.41;;;-145.17;75.31
32759;BME280;19125;52.360;9.974;2023-12-07T08:04:38;-11046.41;;;-145.17;75.22
32759;BME280;19125;52.360;9.974;2023-12-07T08:07:04;-10798.59;;;-145.17;75.45
32759;BME280;19125;52.360;9.974;2023-12-07T08:09:29;-10798.59;;;-145.17;75.68
32759;BME280;19125;52.360;9.974;2023-12-07T08:11:54;-10798.59;;;-145.17;75.82
32759;BME280;19125;52.360;9.974;2023-12-07T08:14:20;-10550.78;;;-145.17;75.68
32759;BME280;19125;52.360;9.974;2023-12-07T08:16:45;-10550.78;;;-145.17;75.89
32759;BME280;19125;52.360;9.974;2023-12-07T08:19:13;-10550.78;;;-145.17;75.23
32759;BME280;19125;52.360;9.974;2023-12-07T08:21:38;-10550.78;;;-145.17;75.69
32759;BME280;19125;52.360;9.974;2023-12-07T08:24:04;-10550.78;;;-145.17;75.64
32759;BME280;19125;52.360;9.974;2023-12-07T08:26:30;-10550.78;;;-145.17;75.41
32759;BME280;19125;52.360;9.974;2023-12-07T08:28:56;-10550.78;;;-145.17;75.41
32759;BME280;19125;52.360;9.974;2023-12-07T08:31:21;-10550.78;;;-145.17;75.17
32759;BME280;19125;52.360;9.974;2023-12-07T08:33:48;-10550.78;;;-145.17;75.14
32759;BME280;19125;52.360;9.974;2023-12-07T08:36:13;-10550.78;;;-145.17;75.35
32759;BME280;19125;52.360;9.974;2023-12-07T08:38:39;-10550.78;;;-145.17;75.72
32759;BME280;19125;52.360;9.974;2023-12-07T08:41:04;-10550.78;;;-145.17;75.70
32759;BME280;19125;52.360;9.974;2023-12-07T08:43:29;-10550.78;;;-145.17;75.35
32759;BME280;19125;52.360;9.974;2023-12-07T08:45:56;-10550.78;;;-145.17;75.02
32759;BME280;19125;52.360;9.974;2023-12-07T08:48:22;-10302.97;;;-145.17;74.94
32759;BME280;19125;52.360;9.974;2023-12-07T08:50:47;-10302.97;;;-145.17;75.49
32759;BME280;19125;52.360;9.974;2023-12-07T08:53:13;-10055.13;;;-145.17;75.52
32759;BME280;19125;52.360;9.974;2023-12-07T08:55:38;-9807.25;;;-145.17;75.31
32759;BME280;19125;52.360;9.974;2023-12-07T08:58:05;-9807.25;;;-145.17;74.90
32759;BME280;19125;52.360;9.974;2023-12-07T09:00:33;-9559.38;;;-145.17;74.87
32759;BME280;19125;52.360;9.974;2023-12-07T09:02:59;-9311.50;;;-145.17;75.12
32759;BME280;19125;52.360;9.974;2023-12-07T09:05:26;-9063.56;;;-145.17;75.12
32759;BME280;19125;52.360;9.974;2023-12-07T09:07:51;-8815.66;;;-145.17;74.59
32759;BME280;19125;52.360;9.974;2023-12-07T09:10:18;-8567.72;;;-145.17;74.57
32759;BME280;19125;52.360;9.974;2023-12-07T09:12:43;-8319.75;;;-145.17;74.62
32759;BME280;19125;52.360;9.974;2023-12-07T09:15:09;-8071.78;;;-145.17;74.90
32759;BME280;19125;52.360;9.974;2023-12-07T09:17:35;-7823.78;;;-145.17;74.67
32759;BME280;19125;52.360;9.974;2023-12-07T09:20:12;-7575.78;;;-145.17;74.71
32759;BME280;19125;52.360;9.974;2023-12-07T09:22:41;-7327.75;;;-145.17;74.19
32759;BME280;19125;52.360;9.974;2023-12-07T09:25:08;-7079.72;;;-145.17;74.35
32759;BME280;19125;52.360;9.974;2023-12-07T09:27:34;-6831.66;;;-145.17;74.65
32759;BME280;19125;52.360;9.974;2023-12-07T09:30:06;-6583.59;;;-145.17;74.51
32759;BME280;19125;52.360;9.974;2023-12-07T09:32:32;-6087.41;;;-145.17;73.85
32759;BME280;19125;52.360;9.974;2023-12-07T09:35:04;-5839.28;;;-145.17;74.07
32759;BME280;19125;52.360;9.974;2023-12-07T09:37:30;-5591.16;;;-145.17;73.78
32759;BME280;19125;52.360;9.974;2023-12-07T09:39:55;-5094.84;;;-145.17;73.65
32759;BME280;19125;52.360;9.974;2023-12-07T09:42:20;-4598.47;;;-145.17;73.84
32759;BME280;19125;52.360;9.974;2023-12-07T09:44:46;-4350.25;;;-145.17;73.47
32759;BME280;19125;52.360;9.974;2023-12-07T09:47:12;-3853.78;;;-145.17;73.84
32759;BME280;19125;52.360;9.974;2023-12-07T09:49:37;-3357.22;;;-145.17;73.52
32759;BME280;19125;52.360;9.974;2023-12-07T09:52:04;-2860.63;;;-145.17;73.25
32759;BME280;19125;52.360;9.974;2023-12-07T09:54:31;-2363.94;;;-145.17;73.29
32759;BME280;19125;52.360;9.974;2023-12-07T09:56:56;-1618.84;;;-145.17;73.08
32759;BME280;19125;52.360;9.974;2023-12-07T09:59:22;-1122.00;;;-145.17;73.20
32759;BME280;19125;52.360;9.974;2023-12-07T10:01:47;-376.63;;;-145.17;72.90
32759;BME280;19125;52.360;9.974;2023-12-07T10:04:21;368.88;;;-145.17;72.62
32759;BME280;19125;52.360;9.974;2023-12-07T10:06:47;1114.53;;;-145.17;72.82
32759;BME280;19125;52.360;9.974;2023-12-07T10:09:14;1860.31;;;-145.17;72.35
32759;BME280;19125;52.360;9.974;2023-12-07T10:11:40;2606.25;;;-145.17;72.18
32759;BME280;19125;52.360;9.974;2023-12-07T10:14:09;3601.06;;;-145.17;72.07
32759;BME280;19125;52.360;9.974;2023-12-07T10:16:34;4347.34;;;-145.17;72.25
32759;BME280;19125;52.360;9.974;2023-12-07T10:19:18;5342.63;;;-145.17;72.01
32759;BME280;19125;52.360;9.974;2023-12-07T10:21:47;6338.13;;;-145.17;71.64
32759;BME280;19125;52.360;9.974;2023-12-07T10:24:13;7333.91;;;-145.17;71.73
32759;BME280;19125;52.360;9.974;2023-12-07T10:26:39;8579.00;;;-145.17;71.47
32759;BME280;19125;52.360;9.974;2023-12-07T10:29:05;10073.63;;;-145.17;71.53
32759;BME280;19125;52.360;9.974;2023-12-07T10:31:31;11568.81;;;-145.17;71.23
32759;BME280;19125;52.360;9.974;2023-12-07T10:33:58;13064.59;;;-145.17;70.93
32759;BME280;19125;52.360;9.974;2023-12-07T10:36:23;14560.94;;;-145.17;70.88
32759;BME280;19125;52.360;9.974;2023-12-07T10:38:49;16057.88;;;-145.17;70.47
32759;BME280;19125;52.360;9.974;2023-12-07T10:41:18;17805.03;;;-145.17;70.56
32759;BME280;19125;52.360;9.974;2023-12-07T10:43:46;19303.19;;;-145.17;70.52
32759;BME280;19125;52.360;9.974;2023-12-07T10:46:15;20801.97;;;-145.17;70.16
32759;BME280;19125;52.360;9.974;2023-12-07T10:48:59;22301.28;;;-145.17;70.29
32759;BME280;19125;52.360;9.974;2023-12-07T10:51:42;23801.22;;;-145.17;70.17
32759;BME280;19125;52.360;9.974;2023-12-07T10:54:14;25301.69;;;-145.17;69.62
32759;BME280;19125;52.360;9.974;2023-12-07T10:56:45;26552.53;;;-145.17;69.50
32759;BME280;19125;52.360;9.974;2023-12-07T10:59:12;27803.78;;;-145.17;69.86
32759;BME280;19125;52.360;9.974;2023-12-07T11:01:39;29055.44;;;-145.17;69.31
32759;BME280;19125;52.360;9.974;2023-12-07T11:04:05;30057.06;;;-145.17;69.57
32759;BME280;19125;52.360;9.974;2023-12-07T11:06:31;31309.41;;;-145.17;69.10
32759;BME280;19125;52.360;9.974;2023-12-07T11:08:59;32812.78;;;-145.17;69.06
32759;BME280;19125;52.360;9.974;2023-12-07T11:11:47;34316.75;;;-145.17;69.10
32759;BME280;19125;52.360;9.974;2023-12-07T11:14:15;36072.09;;;-145.17;68.77
32759;BME280;19125;52.360;9.974;2023-12-07T11:16:43;38079.16;;;-145.17;68.33
32759;BME280;19125;52.360;9.974;2023-12-07T11:19:43;40338.31;;;-145.17;68.53
32759;BME280;19125;52.360;9.974;2023-12-07T11:22:12;42347.56;;;-145.17;68.23
32759;BME280;19125;52.360;9.974;2023-12-07T11:24:52;44860.56;;;-145.17;68.03
32759;BME280;19125;52.360;9.974;2023-12-07T11:27:18;47375.16;;;-145.17;67.68
32759;BME280;19125;52.360;9.974;2023-12-07T11:29:46;49388.00;;;-145.17;67.93
32759;BME280;19125;52.360;9.974;2023-12-07T11:32:12;51905.47;;;-145.17;67.48
32759;BME280;19125;52.360;9.974;2023-12-07T11:34:41;54676.56;;;-145.17;67.21
32759;BME280;19125;52.360;9.974;2023-12-07T11:37:07;57701.75;;;-145.17;67.53
32759;BME280;19125;52.360;9.974;2023-12-07T11:39:40;60981.69;;;-145.17;66.86
32759;BME280;19125;52.360;9.974;2023-12-07T11:42:11;63506.53;;;-145.17;66.93
32759;BME280;19125;52.360;9.974;2023-12-07T11:44:38;65527.56;;;-145.17;66.67
32759;BME280;19125;52.360;9.974;2023-12-07T11:47:04;67893.34;;;-145.17;66.62
32759;BME280;19125;52.360;9.974;2023-12-07T11:49:30;70776.41;;;-145.17;66.65
32759;BME280;19125;52.360;9.974;2023-12-07T11:52:21;74445.00;;;-145.17;66.42
32759;BME280;19125;52.360;9.974;2023-12-07T11:54:48;77099.16;;;-145.17;66.17
32759;BME280;19125;52.360;9.974;2023-12-07T11:57:14;78760.63;;;-145.17;65.78
32759;BME280;19125;52.360;9.974;2023-12-07T11:59:41;79925.47;;;-145.17;66.04
32759;BME280;19125;52.360;9.974;2023-12-07T12:02:07;80940.00;;;-145.17;65.68
32759;BME280;19125;52.360;9.974;2023-12-07T12:04:32;81915.16;;;-145.17;65.49
32759;BME280;19125;52.360;9.974;2023-12-07T12:06:57;82981.78;;;-145.17;65.38
32759;BME280;19125;52.360;9.974;2023-12-07T12:09:26;84003.03;;;-145.17;65.00
32759;BME280;19125;52.360;9.974;2023-12-07T12:11:51;84790.50;;;-145.17;65.04
32759;BME280;19125;52.360;9.974;2023-12-07T12:14:17;85445.16;;;-145.17;65.13
32759;BME280;19125;52.360;9.974;2023-12-07T12:16:43;85887.63;;;-145.17;64.92
32759;BME280;19125;52.360;9.974;2023-12-07T12:19:09;86322.19;;;-145.17;64.53
32759;BME280;19125;52.360;9.974;2023-12-07T12:21:38;86645.69;;;-145.17;64.39
32759;BME280;19125;52.360;9.974;2023-12-07T12:24:07;86917.56;;;-145.17;64.30
32759;BME280;19125;52.360;9.974;2023-12-07T12:26:34;87068.41;;;-145.17;64.47
32759;BME280;19125;52.360;9.974;2023-12-07T12:29:01;87163.69;;;-145.17;64.29